Warner, South Dakota
Current Conditions -  °F | °C
As of 1:53 AM on Tuesday 27 Jan 2015 (Local Time) from KABR Reporting Station
Clear Clear  
Wind Chill: 24°   Ceiling: Unl
Heat Index: 30°   Visibility: 10mi
Dew Point: 27°   Wind: 6mph
Humidity: 88%   Direction: 100°E
Pressure: 30.01"   Gusts: NA
Location:  45.33°N, 98.5°W
Report Text: KABR 270753Z AUTO 10005KT 10SM CLR M01/M03 A3001 RMK AO2 SLP173 T10111028
Loading
Personal Weather Stations






























Interactive Weather Map New forecast layout! Learn more

10-Day Weather Forecast

Advertisements
Track Severe Weather on mobile